TAF KDIK
KDIK 072326Z 0800/0824 00000KT P6SM BKN110 FM080600 VRB06KT P6SM SCT200 FM081200 17007KT P6SM BKN100 FM081700 20013G22KT P6SM SCT200=
METAR KDIK
WC KDIK
WS KDIK
WV KDIK